sensor_id;sensor_type;location;lat;lon;timestamp;P1;durP1;ratioP1;P2;durP2;ratioP2
28311;SDS011;15572;48.810;9.148;2024-03-07T00:00:12;54.93;;;31.10;;
28311;SDS011;15572;48.810;9.148;2024-03-07T00:05:14;55.90;;;31.13;;
28311;SDS011;15572;48.810;9.148;2024-03-07T00:10:11;56.87;;;30.60;;
28311;SDS011;15572;48.810;9.148;2024-03-07T00:15:08;52.37;;;29.37;;
28311;SDS011;15572;48.810;9.148;2024-03-07T00:20:06;53.40;;;29.47;;
28311;SDS011;15572;48.810;9.148;2024-03-07T00:25:06;52.83;;;29.90;;
28311;SDS011;15572;48.810;9.148;2024-03-07T00:30:04;54.30;;;30.33;;
28311;SDS011;15572;48.810;9.148;2024-03-07T00:35:04;55.90;;;30.83;;
28311;SDS011;15572;48.810;9.148;2024-03-07T00:40:01;53.70;;;30.40;;
28311;SDS011;15572;48.810;9.148;2024-03-07T00:45:00;53.83;;;30.20;;
28311;SDS011;15572;48.810;9.148;2024-03-07T00:49:58;51.23;;;29.63;;
28311;SDS011;15572;48.810;9.148;2024-03-07T00:54:55;54.00;;;29.57;;
28311;SDS011;15572;48.810;9.148;2024-03-07T00:59:51;54.47;;;31.23;;
28311;SDS011;15572;48.810;9.148;2024-03-07T01:04:49;54.17;;;30.40;;
28311;SDS011;15572;48.810;9.148;2024-03-07T01:09:45;57.47;;;30.83;;
28311;SDS011;15572;48.810;9.148;2024-03-07T01:14:42;55.83;;;32.13;;
28311;SDS011;15572;48.810;9.148;2024-03-07T01:19:39;56.23;;;31.67;;
28311;SDS011;15572;48.810;9.148;2024-03-07T01:24:36;56.10;;;32.97;;
28311;SDS011;15572;48.810;9.148;2024-03-07T01:29:34;57.20;;;33.00;;
28311;SDS011;15572;48.810;9.148;2024-03-07T01:34:30;58.10;;;30.90;;
28311;SDS011;15572;48.810;9.148;2024-03-07T01:39:27;60.60;;;33.40;;
28311;SDS011;15572;48.810;9.148;2024-03-07T01:44:24;61.70;;;33.87;;
28311;SDS011;15572;48.810;9.148;2024-03-07T01:49:21;59.93;;;33.70;;
28311;SDS011;15572;48.810;9.148;2024-03-07T01:54:17;61.10;;;34.13;;
28311;SDS011;15572;48.810;9.148;2024-03-07T01:59:14;57.30;;;33.20;;
28311;SDS011;15572;48.810;9.148;2024-03-07T02:04:13;54.37;;;32.37;;
28311;SDS011;15572;48.810;9.148;2024-03-07T02:09:10;58.27;;;33.23;;
28311;SDS011;15572;48.810;9.148;2024-03-07T02:14:09;57.90;;;33.47;;
28311;SDS011;15572;48.810;9.148;2024-03-07T02:19:05;63.63;;;35.03;;
28311;SDS011;15572;48.810;9.148;2024-03-07T02:24:05;60.60;;;33.90;;
28311;SDS011;15572;48.810;9.148;2024-03-07T02:29:01;61.43;;;34.13;;
28311;SDS011;15572;48.810;9.148;2024-03-07T02:33:58;60.60;;;34.53;;
28311;SDS011;15572;48.810;9.148;2024-03-07T02:38:54;59.57;;;34.30;;
28311;SDS011;15572;48.810;9.148;2024-03-07T02:43:52;62.33;;;34.43;;
28311;SDS011;15572;48.810;9.148;2024-03-07T02:48:49;66.37;;;35.33;;
28311;SDS011;15572;48.810;9.148;2024-03-07T02:53:45;63.40;;;34.73;;
28311;SDS011;15572;48.810;9.148;2024-03-07T02:58:42;61.13;;;34.33;;
28311;SDS011;15572;48.810;9.148;2024-03-07T03:03:39;65.47;;;34.00;;
28311;SDS011;15572;48.810;9.148;2024-03-07T03:08:37;64.97;;;36.47;;
28311;SDS011;15572;48.810;9.148;2024-03-07T03:13:33;68.67;;;36.20;;
28311;SDS011;15572;48.810;9.148;2024-03-07T03:18:30;68.47;;;36.47;;
28311;SDS011;15572;48.810;9.148;2024-03-07T03:23:28;63.43;;;34.53;;
28311;SDS011;15572;48.810;9.148;2024-03-07T03:28:25;60.30;;;33.50;;
28311;SDS011;15572;48.810;9.148;2024-03-07T03:33:21;67.33;;;36.03;;
28311;SDS011;15572;48.810;9.148;2024-03-07T03:38:18;62.60;;;34.17;;
28311;SDS011;15572;48.810;9.148;2024-03-07T03:43:16;66.90;;;34.40;;
28311;SDS011;15572;48.810;9.148;2024-03-07T03:48:13;66.83;;;34.20;;
28311;SDS011;15572;48.810;9.148;2024-03-07T03:58:07;63.67;;;34.77;;
28311;SDS011;15572;48.810;9.148;2024-03-07T04:03:05;68.37;;;34.77;;
28311;SDS011;15572;48.810;9.148;2024-03-07T04:08:02;65.90;;;35.73;;
28311;SDS011;15572;48.810;9.148;2024-03-07T04:12:59;63.93;;;34.50;;
28311;SDS011;15572;48.810;9.148;2024-03-07T04:17:55;66.70;;;35.33;;
28311;SDS011;15572;48.810;9.148;2024-03-07T04:22:53;72.43;;;38.03;;
28311;SDS011;15572;48.810;9.148;2024-03-07T04:27:50;75.27;;;37.40;;
28311;SDS011;15572;48.810;9.148;2024-03-07T04:32:47;70.27;;;37.73;;
28311;SDS011;15572;48.810;9.148;2024-03-07T04:37:44;70.10;;;37.60;;
28311;SDS011;15572;48.810;9.148;2024-03-07T04:42:42;63.87;;;35.47;;
28311;SDS011;15572;48.810;9.148;2024-03-07T04:47:39;64.87;;;35.43;;
28311;SDS011;15572;48.810;9.148;2024-03-07T04:52:36;69.60;;;35.53;;
28311;SDS011;15572;48.810;9.148;2024-03-07T04:57:34;64.43;;;35.80;;
28311;SDS011;15572;48.810;9.148;2024-03-07T05:02:32;68.57;;;36.50;;
28311;SDS011;15572;48.810;9.148;2024-03-07T05:07:28;66.53;;;34.40;;
28311;SDS011;15572;48.810;9.148;2024-03-07T05:12:25;67.23;;;35.20;;
28311;SDS011;15572;48.810;9.148;2024-03-07T05:17:21;70.27;;;34.67;;
28311;SDS011;15572;48.810;9.148;2024-03-07T05:22:19;68.20;;;35.27;;
28311;SDS011;15572;48.810;9.148;2024-03-07T05:27:20;64.40;;;34.60;;
28311;SDS011;15572;48.810;9.148;2024-03-07T05:32:20;68.03;;;34.07;;
28311;SDS011;15572;48.810;9.148;2024-03-07T05:37:18;69.27;;;36.30;;
28311;SDS011;15572;48.810;9.148;2024-03-07T05:42:16;69.37;;;36.33;;
28311;SDS011;15572;48.810;9.148;2024-03-07T05:47:13;65.07;;;35.17;;
28311;SDS011;15572;48.810;9.148;2024-03-07T05:52:09;66.30;;;34.37;;
28311;SDS011;15572;48.810;9.148;2024-03-07T05:57:07;65.23;;;33.27;;
28311;SDS011;15572;48.810;9.148;2024-03-07T06:02:03;69.40;;;34.70;;
28311;SDS011;15572;48.810;9.148;2024-03-07T06:07:00;63.57;;;33.17;;
28311;SDS011;15572;48.810;9.148;2024-03-07T06:11:56;67.27;;;34.77;;
28311;SDS011;15572;48.810;9.148;2024-03-07T06:16:54;61.80;;;32.83;;
28311;SDS011;15572;48.810;9.148;2024-03-07T06:21:51;67.47;;;33.83;;
28311;SDS011;15572;48.810;9.148;2024-03-07T06:26:49;62.30;;;32.37;;
28311;SDS011;15572;48.810;9.148;2024-03-07T06:31:55;67.50;;;31.83;;
28311;SDS011;15572;48.810;9.148;2024-03-07T06:36:52;64.30;;;32.07;;
28311;SDS011;15572;48.810;9.148;2024-03-07T06:41:50;58.77;;;31.23;;
28311;SDS011;15572;48.810;9.148;2024-03-07T06:46:46;58.60;;;30.87;;
28311;SDS011;15572;48.810;9.148;2024-03-07T06:51:44;54.73;;;31.03;;
28311;SDS011;15572;48.810;9.148;2024-03-07T06:56:41;56.27;;;30.07;;
28311;SDS011;15572;48.810;9.148;2024-03-07T07:01:38;59.80;;;31.53;;
28311;SDS011;15572;48.810;9.148;2024-03-07T07:06:38;58.87;;;30.57;;
28311;SDS011;15572;48.810;9.148;2024-03-07T07:11:35;52.60;;;29.33;;
28311;SDS011;15572;48.810;9.148;2024-03-07T07:16:32;55.10;;;28.80;;
28311;SDS011;15572;48.810;9.148;2024-03-07T07:21:30;53.40;;;28.73;;
28311;SDS011;15572;48.810;9.148;2024-03-07T07:26:27;52.23;;;28.50;;
28311;SDS011;15572;48.810;9.148;2024-03-07T07:31:25;51.60;;;27.63;;
28311;SDS011;15572;48.810;9.148;2024-03-07T07:36:21;48.57;;;28.17;;
28311;SDS011;15572;48.810;9.148;2024-03-07T07:41:17;49.50;;;25.83;;
28311;SDS011;15572;48.810;9.148;2024-03-07T07:46:14;45.63;;;26.10;;
28311;SDS011;15572;48.810;9.148;2024-03-07T07:51:12;48.53;;;26.90;;
28311;SDS011;15572;48.810;9.148;2024-03-07T07:56:08;51.47;;;27.33;;
28311;SDS011;15572;48.810;9.148;2024-03-07T08:01:05;47.40;;;25.87;;
28311;SDS011;15572;48.810;9.148;2024-03-07T08:06:03;47.10;;;26.57;;
28311;SDS011;15572;48.810;9.148;2024-03-07T08:11:01;46.97;;;25.33;;
28311;SDS011;15572;48.810;9.148;2024-03-07T08:15:58;50.07;;;28.00;;
28311;SDS011;15572;48.810;9.148;2024-03-07T08:20:54;44.50;;;26.23;;
28311;SDS011;15572;48.810;9.148;2024-03-07T08:25:59;46.80;;;25.40;;
28311;SDS011;15572;48.810;9.148;2024-03-07T08:30:55;42.17;;;24.93;;
28311;SDS011;15572;48.810;9.148;2024-03-07T08:35:53;43.33;;;25.33;;
28311;SDS011;15572;48.810;9.148;2024-03-07T08:40:50;47.57;;;27.87;;
28311;SDS011;15572;48.810;9.148;2024-03-07T08:45:47;47.53;;;26.40;;
28311;SDS011;15572;48.810;9.148;2024-03-07T08:50:44;44.80;;;26.57;;
28311;SDS011;15572;48.810;9.148;2024-03-07T08:55:40;44.80;;;26.70;;
28311;SDS011;15572;48.810;9.148;2024-03-07T09:00:38;43.93;;;25.60;;
28311;SDS011;15572;48.810;9.148;2024-03-07T09:05:35;43.70;;;25.50;;
28311;SDS011;15572;48.810;9.148;2024-03-07T09:10:32;39.47;;;23.67;;
28311;SDS011;15572;48.810;9.148;2024-03-07T09:15:28;46.17;;;24.57;;
28311;SDS011;15572;48.810;9.148;2024-03-07T09:20:25;39.10;;;23.67;;
28311;SDS011;15572;48.810;9.148;2024-03-07T09:25:23;41.70;;;24.00;;
28311;SDS011;15572;48.810;9.148;2024-03-07T09:30:19;39.73;;;23.70;;
28311;SDS011;15572;48.810;9.148;2024-03-07T09:35:19;41.07;;;23.90;;
28311;SDS011;15572;48.810;9.148;2024-03-07T09:40:16;41.60;;;24.13;;
28311;SDS011;15572;48.810;9.148;2024-03-07T09:45:15;40.93;;;25.17;;
28311;SDS011;15572;48.810;9.148;2024-03-07T09:50:12;40.87;;;24.53;;
28311;SDS011;15572;48.810;9.148;2024-03-07T09:55:13;43.33;;;25.17;;
28311;SDS011;15572;48.810;9.148;2024-03-07T10:00:11;42.37;;;24.63;;
28311;SDS011;15572;48.810;9.148;2024-03-07T10:05:19;42.40;;;24.07;;
28311;SDS011;15572;48.810;9.148;2024-03-07T10:10:17;40.80;;;25.30;;
28311;SDS011;15572;48.810;9.148;2024-03-07T10:15:13;39.77;;;24.17;;
28311;SDS011;15572;48.810;9.148;2024-03-07T10:20:12;38.80;;;24.67;;
28311;SDS011;15572;48.810;9.148;2024-03-07T10:25:11;39.93;;;23.60;;
28311;SDS011;15572;48.810;9.148;2024-03-07T10:30:07;42.37;;;24.57;;
28311;SDS011;15572;48.810;9.148;2024-03-07T10:35:06;41.80;;;23.97;;
28311;SDS011;15572;48.810;9.148;2024-03-07T10:40:03;46.73;;;24.87;;
28311;SDS011;15572;48.810;9.148;2024-03-07T10:45:11;40.90;;;24.63;;
28311;SDS011;15572;48.810;9.148;2024-03-07T10:50:20;43.00;;;24.67;;
28311;SDS011;15572;48.810;9.148;2024-03-07T10:55:34;41.63;;;23.97;;
28311;SDS011;15572;48.810;9.148;2024-03-07T11:00:35;44.30;;;25.07;;
28311;SDS011;15572;48.810;9.148;2024-03-07T11:05:40;42.70;;;25.83;;
28311;SDS011;15572;48.810;9.148;2024-03-07T11:10:38;41.57;;;24.50;;
28311;SDS011;15572;48.810;9.148;2024-03-07T11:15:37;41.23;;;25.20;;
28311;SDS011;15572;48.810;9.148;2024-03-07T11:20:35;42.60;;;25.50;;
28311;SDS011;15572;48.810;9.148;2024-03-07T11:25:33;42.33;;;25.33;;
28311;SDS011;15572;48.810;9.148;2024-03-07T11:30:30;40.50;;;24.97;;
28311;SDS011;15572;48.810;9.148;2024-03-07T11:35:34;39.43;;;24.83;;
28311;SDS011;15572;48.810;9.148;2024-03-07T11:40:42;42.17;;;25.87;;
28311;SDS011;15572;48.810;9.148;2024-03-07T11:45:39;43.47;;;25.33;;
28311;SDS011;15572;48.810;9.148;2024-03-07T11:50:41;40.47;;;24.17;;
28311;SDS011;15572;48.810;9.148;2024-03-07T11:55:38;41.37;;;24.07;;
28311;SDS011;15572;48.810;9.148;2024-03-07T12:00:40;44.97;;;25.40;;
28311;SDS011;15572;48.810;9.148;2024-03-07T12:05:41;40.33;;;24.37;;
28311;SDS011;15572;48.810;9.148;2024-03-07T12:10:38;39.77;;;23.40;;
28311;SDS011;15572;48.810;9.148;2024-03-07T12:15:38;42.83;;;25.33;;
28311;SDS011;15572;48.810;9.148;2024-03-07T12:20:36;43.13;;;25.67;;
28311;SDS011;15572;48.810;9.148;2024-03-07T12:25:34;39.67;;;24.77;;
28311;SDS011;15572;48.810;9.148;2024-03-07T12:30:34;44.87;;;26.43;;
28311;SDS011;15572;48.810;9.148;2024-03-07T12:35:33;40.17;;;24.93;;
28311;SDS011;15572;48.810;9.148;2024-03-07T12:40:29;39.90;;;24.97;;
28311;SDS011;15572;48.810;9.148;2024-03-07T12:45:30;40.77;;;24.57;;
28311;SDS011;15572;48.810;9.148;2024-03-07T12:50:28;40.33;;;25.07;;
28311;SDS011;15572;48.810;9.148;2024-03-07T12:55:25;43.13;;;26.43;;
28311;SDS011;15572;48.810;9.148;2024-03-07T13:00:22;42.20;;;25.97;;
28311;SDS011;15572;48.810;9.148;2024-03-07T13:05:20;43.57;;;26.40;;
28311;SDS011;15572;48.810;9.148;2024-03-07T13:10:17;42.27;;;26.20;;
28311;SDS011;15572;48.810;9.148;2024-03-07T13:15:15;44.07;;;26.30;;
28311;SDS011;15572;48.810;9.148;2024-03-07T13:20:12;43.13;;;27.53;;
28311;SDS011;15572;48.810;9.148;2024-03-07T13:25:11;42.40;;;26.20;;
28311;SDS011;15572;48.810;9.148;2024-03-07T13:30:11;42.07;;;26.23;;
28311;SDS011;15572;48.810;9.148;2024-03-07T13:35:19;39.43;;;25.30;;
28311;SDS011;15572;48.810;9.148;2024-03-07T13:40:17;38.17;;;24.23;;
28311;SDS011;15572;48.810;9.148;2024-03-07T13:45:20;39.90;;;26.40;;
28311;SDS011;15572;48.810;9.148;2024-03-07T13:50:17;38.57;;;26.10;;
28311;SDS011;15572;48.810;9.148;2024-03-07T13:55:15;39.83;;;25.43;;
28311;SDS011;15572;48.810;9.148;2024-03-07T14:00:18;44.67;;;26.17;;
28311;SDS011;15572;48.810;9.148;2024-03-07T14:11:01;44.90;;;28.43;;
28311;SDS011;15572;48.810;9.148;2024-03-07T14:16:29;43.83;;;26.60;;
28311;SDS011;15572;48.810;9.148;2024-03-07T14:21:44;43.53;;;27.53;;
28311;SDS011;15572;48.810;9.148;2024-03-07T14:26:56;44.93;;;28.10;;
28311;SDS011;15572;48.810;9.148;2024-03-07T14:32:11;43.63;;;27.40;;
28311;SDS011;15572;48.810;9.148;2024-03-07T14:37:10;45.70;;;28.10;;
28311;SDS011;15572;48.810;9.148;2024-03-07T14:42:13;44.23;;;28.17;;
28311;SDS011;15572;48.810;9.148;2024-03-07T14:47:12;47.37;;;29.67;;
28311;SDS011;15572;48.810;9.148;2024-03-07T14:52:09;43.20;;;27.60;;
28311;SDS011;15572;48.810;9.148;2024-03-07T14:57:07;47.63;;;28.23;;
28311;SDS011;15572;48.810;9.148;2024-03-07T15:02:05;44.80;;;27.97;;
28311;SDS011;15572;48.810;9.148;2024-03-07T15:07:07;43.33;;;27.40;;
28311;SDS011;15572;48.810;9.148;2024-03-07T15:12:04;45.63;;;27.90;;
28311;SDS011;15572;48.810;9.148;2024-03-07T15:17:02;43.90;;;26.80;;
28311;SDS011;15572;48.810;9.148;2024-03-07T15:22:01;43.63;;;26.80;;
28311;SDS011;15572;48.810;9.148;2024-03-07T15:26:59;43.27;;;26.57;;
28311;SDS011;15572;48.810;9.148;2024-03-07T15:31:56;41.13;;;25.73;;
28311;SDS011;15572;48.810;9.148;2024-03-07T15:36:56;41.10;;;25.10;;
28311;SDS011;15572;48.810;9.148;2024-03-07T15:41:56;42.80;;;25.37;;
28311;SDS011;15572;48.810;9.148;2024-03-07T15:46:55;35.77;;;23.30;;
28311;SDS011;15572;48.810;9.148;2024-03-07T15:51:51;39.17;;;23.90;;
28311;SDS011;15572;48.810;9.148;2024-03-07T15:56:49;37.83;;;24.00;;
28311;SDS011;15572;48.810;9.148;2024-03-07T16:01:45;38.13;;;24.00;;
28311;SDS011;15572;48.810;9.148;2024-03-07T16:06:43;38.80;;;23.73;;
28311;SDS011;15572;48.810;9.148;2024-03-07T16:11:40;38.93;;;23.83;;
28311;SDS011;15572;48.810;9.148;2024-03-07T16:16:38;38.97;;;23.57;;
28311;SDS011;15572;48.810;9.148;2024-03-07T16:21:36;38.47;;;23.67;;
28311;SDS011;15572;48.810;9.148;2024-03-07T16:26:34;36.73;;;22.90;;
28311;SDS011;15572;48.810;9.148;2024-03-07T16:31:31;35.33;;;21.83;;
28311;SDS011;15572;48.810;9.148;2024-03-07T16:36:27;36.00;;;22.30;;
28311;SDS011;15572;48.810;9.148;2024-03-07T16:41:24;37.60;;;22.70;;
28311;SDS011;15572;48.810;9.148;2024-03-07T16:46:23;40.30;;;23.40;;
28311;SDS011;15572;48.810;9.148;2024-03-07T16:51:19;41.23;;;23.03;;
28311;SDS011;15572;48.810;9.148;2024-03-07T16:56:15;37.77;;;22.57;;
28311;SDS011;15572;48.810;9.148;2024-03-07T17:01:12;35.50;;;21.70;;
28311;SDS011;15572;48.810;9.148;2024-03-07T17:06:10;38.87;;;23.33;;
28311;SDS011;15572;48.810;9.148;2024-03-07T17:11:06;38.63;;;22.90;;
28311;SDS011;15572;48.810;9.148;2024-03-07T17:16:05;38.87;;;22.57;;
28311;SDS011;15572;48.810;9.148;2024-03-07T17:21:01;36.67;;;22.53;;
28311;SDS011;15572;48.810;9.148;2024-03-07T17:26:02;35.17;;;21.67;;
28311;SDS011;15572;48.810;9.148;2024-03-07T17:30:59;36.10;;;22.53;;
28311;SDS011;15572;48.810;9.148;2024-03-07T17:35:55;41.07;;;22.10;;
28311;SDS011;15572;48.810;9.148;2024-03-07T17:40:52;35.27;;;21.73;;
28311;SDS011;15572;48.810;9.148;2024-03-07T17:45:50;32.83;;;19.57;;
28311;SDS011;15572;48.810;9.148;2024-03-07T17:50:47;31.13;;;19.37;;
28311;SDS011;15572;48.810;9.148;2024-03-07T17:55:43;29.07;;;18.17;;
28311;SDS011;15572;48.810;9.148;2024-03-07T18:00:39;30.60;;;18.00;;
28311;SDS011;15572;48.810;9.148;2024-03-07T18:05:39;33.37;;;19.90;;
28311;SDS011;15572;48.810;9.148;2024-03-07T18:10:41;35.47;;;19.13;;
28311;SDS011;15572;48.810;9.148;2024-03-07T18:15:40;29.03;;;17.83;;
28311;SDS011;15572;48.810;9.148;2024-03-07T18:20:39;28.83;;;17.87;;
28311;SDS011;15572;48.810;9.148;2024-03-07T18:25:36;28.83;;;17.90;;
28311;SDS011;15572;48.810;9.148;2024-03-07T18:30:33;24.63;;;16.80;;
28311;SDS011;15572;48.810;9.148;2024-03-07T18:35:30;27.77;;;17.43;;
28311;SDS011;15572;48.810;9.148;2024-03-07T18:40:29;29.83;;;18.50;;
28311;SDS011;15572;48.810;9.148;2024-03-07T18:45:28;28.80;;;17.53;;
28311;SDS011;15572;48.810;9.148;2024-03-07T18:50:25;27.20;;;17.10;;
28311;SDS011;15572;48.810;9.148;2024-03-07T18:55:22;31.00;;;18.90;;
28311;SDS011;15572;48.810;9.148;2024-03-07T19:00:25;33.33;;;18.80;;
28311;SDS011;15572;48.810;9.148;2024-03-07T19:05:27;27.53;;;17.43;;
28311;SDS011;15572;48.810;9.148;2024-03-07T19:10:25;29.93;;;18.17;;
28311;SDS011;15572;48.810;9.148;2024-03-07T19:15:26;27.63;;;18.40;;
28311;SDS011;15572;48.810;9.148;2024-03-07T19:20:22;32.50;;;18.30;;
28311;SDS011;15572;48.810;9.148;2024-03-07T19:25:19;29.90;;;18.63;;
28311;SDS011;15572;48.810;9.148;2024-03-07T19:30:16;35.40;;;18.53;;
28311;SDS011;15572;48.810;9.148;2024-03-07T19:35:14;32.17;;;19.37;;
28311;SDS011;15572;48.810;9.148;2024-03-07T19:40:14;30.37;;;18.30;;
28311;SDS011;15572;48.810;9.148;2024-03-07T19:45:14;32.13;;;19.77;;
28311;SDS011;15572;48.810;9.148;2024-03-07T19:50:11;31.30;;;18.97;;
28311;SDS011;15572;48.810;9.148;2024-03-07T19:55:12;28.50;;;17.73;;
28311;SDS011;15572;48.810;9.148;2024-03-07T20:00:09;30.93;;;17.93;;
28311;SDS011;15572;48.810;9.148;2024-03-07T20:05:10;31.50;;;18.63;;
28311;SDS011;15572;48.810;9.148;2024-03-07T20:10:12;31.23;;;18.77;;
28311;SDS011;15572;48.810;9.148;2024-03-07T20:15:09;28.63;;;18.47;;
28311;SDS011;15572;48.810;9.148;2024-03-07T20:20:06;29.07;;;18.33;;
28311;SDS011;15572;48.810;9.148;2024-03-07T20:25:09;31.50;;;18.23;;
28311;SDS011;15572;48.810;9.148;2024-03-07T20:30:09;30.80;;;17.80;;
28311;SDS011;15572;48.810;9.148;2024-03-07T20:35:07;31.10;;;18.77;;
28311;SDS011;15572;48.810;9.148;2024-03-07T20:40:04;29.77;;;18.43;;
28311;SDS011;15572;48.810;9.148;2024-03-07T20:45:03;30.27;;;18.63;;
28311;SDS011;15572;48.810;9.148;2024-03-07T20:50:04;30.60;;;18.57;;
28311;SDS011;15572;48.810;9.148;2024-03-07T20:55:04;29.90;;;18.40;;
28311;SDS011;15572;48.810;9.148;2024-03-07T21:00:01;34.80;;;19.70;;
28311;SDS011;15572;48.810;9.148;2024-03-07T21:04:58;29.07;;;18.80;;
28311;SDS011;15572;48.810;9.148;2024-03-07T21:09:57;29.80;;;18.07;;
28311;SDS011;15572;48.810;9.148;2024-03-07T21:14:55;31.90;;;18.37;;
28311;SDS011;15572;48.810;9.148;2024-03-07T21:19:52;29.70;;;17.97;;
28311;SDS011;15572;48.810;9.148;2024-03-07T21:24:49;31.83;;;18.60;;
28311;SDS011;15572;48.810;9.148;2024-03-07T21:29:46;31.13;;;19.23;;
28311;SDS011;15572;48.810;9.148;2024-03-07T21:34:44;29.47;;;18.37;;
28311;SDS011;15572;48.810;9.148;2024-03-07T21:39:40;30.83;;;18.70;;
28311;SDS011;15572;48.810;9.148;2024-03-07T21:44:37;31.80;;;19.07;;
28311;SDS011;15572;48.810;9.148;2024-03-07T21:49:35;30.93;;;19.17;;
28311;SDS011;15572;48.810;9.148;2024-03-07T21:54:36;30.10;;;19.20;;
28311;SDS011;15572;48.810;9.148;2024-03-07T21:59:37;31.93;;;19.10;;
28311;SDS011;15572;48.810;9.148;2024-03-07T22:04:35;32.63;;;19.70;;
28311;SDS011;15572;48.810;9.148;2024-03-07T22:09:31;35.33;;;20.67;;
28311;SDS011;15572;48.810;9.148;2024-03-07T22:14:28;31.23;;;19.60;;
28311;SDS011;15572;48.810;9.148;2024-03-07T22:19:24;30.27;;;18.67;;
28311;SDS011;15572;48.810;9.148;2024-03-07T22:24:22;31.30;;;18.97;;
28311;SDS011;15572;48.810;9.148;2024-03-07T22:29:19;33.50;;;18.70;;
28311;SDS011;15572;48.810;9.148;2024-03-07T22:34:15;31.93;;;19.07;;
28311;SDS011;15572;48.810;9.148;2024-03-07T22:39:12;33.17;;;19.17;;
28311;SDS011;15572;48.810;9.148;2024-03-07T22:44:10;33.53;;;18.97;;
28311;SDS011;15572;48.810;9.148;2024-03-07T22:49:06;33.10;;;19.37;;
28311;SDS011;15572;48.810;9.148;2024-03-07T22:54:03;30.37;;;19.03;;
28311;SDS011;15572;48.810;9.148;2024-03-07T22:59:02;33.40;;;18.70;;
28311;SDS011;15572;48.810;9.148;2024-03-07T23:04:00;34.37;;;19.40;;
28311;SDS011;15572;48.810;9.148;2024-03-07T23:09:00;33.83;;;19.13;;
28311;SDS011;15572;48.810;9.148;2024-03-07T23:13:58;34.13;;;19.07;;
28311;SDS011;15572;48.810;9.148;2024-03-07T23:18:55;33.70;;;18.63;;
28311;SDS011;15572;48.810;9.148;2024-03-07T23:23:53;30.87;;;18.10;;
28311;SDS011;15572;48.810;9.148;2024-03-07T23:28:49;33.13;;;19.10;;
28311;SDS011;15572;48.810;9.148;2024-03-07T23:33:48;32.10;;;18.90;;
28311;SDS011;15572;48.810;9.148;2024-03-07T23:38:45;34.70;;;18.90;;
28311;SDS011;15572;48.810;9.148;2024-03-07T23:43:43;32.10;;;19.67;;
28311;SDS011;15572;48.810;9.148;2024-03-07T23:48:41;35.07;;;19.53;;
28311;SDS011;15572;48.810;9.148;2024-03-07T23:53:38;32.13;;;18.23;;
28311;SDS011;15572;48.810;9.148;2024-03-07T23:58:35;29.80;;;18.07;;
